Ogunquit, Maine
Current Conditions -  °F | °C
As of 2:55 AM on Friday 19 Dec 2014 (Local Time) from KSFM Reporting Station
Clear Clear  
Wind Chill: 24°   Ceiling: Unl
Heat Index: 30°   Visibility: 10mi
Dew Point: 19°   Wind: 6mph
Humidity: 64%   Direction: 290°WNW
Pressure: 29.83"   Gusts: NA
Location:  43.25°N, 70.6°W
Report Text: KSFM 190755Z AUTO 29005KT 10SM CLR M01/M07 A2983 RMK AO1
Loading
Personal Weather Stations






























Interactive Weather Map New forecast layout! Learn more

10-Day Weather Forecast

Advertisements
Track Severe Weather on mobile